sensor_id;sensor_type;location;lat;lon;timestamp;pressure;altitude;pressure_sealevel;temperature;humidity
7309;BME280;3695;53.330;9.876;2023-05-19T00:00:54;103277.75;;;9.15;100.00
7309;BME280;3695;53.330;9.876;2023-05-19T00:03:21;103277.63;;;9.07;100.00
7309;BME280;3695;53.330;9.876;2023-05-19T00:05:51;103271.03;;;9.19;100.00
7309;BME280;3695;53.330;9.876;2023-05-19T00:08:19;103274.00;;;9.26;100.00
7309;BME280;3695;53.330;9.876;2023-05-19T00:10:45;103271.47;;;9.14;100.00
7309;BME280;3695;53.330;9.876;2023-05-19T00:13:12;103277.22;;;9.02;100.00
7309;BME280;3695;53.330;9.876;2023-05-19T00:15:39;103275.94;;;9.06;100.00
7309;BME280;3695;53.330;9.876;2023-05-19T00:18:06;103279.09;;;9.01;100.00
7309;BME280;3695;53.330;9.876;2023-05-19T00:20:34;103281.06;;;9.09;100.00
7309;BME280;3695;53.330;9.876;2023-05-19T00:23:03;103285.59;;;9.08;100.00
7309;BME280;3695;53.330;9.876;2023-05-19T00:25:29;103274.38;;;9.03;100.00
7309;BME280;3695;53.330;9.876;2023-05-19T00:27:57;103273.25;;;8.87;100.00
7309;BME280;3695;53.330;9.876;2023-05-19T00:30:23;103271.66;;;8.94;100.00
7309;BME280;3695;53.330;9.876;2023-05-19T00:32:50;103270.25;;;8.99;100.00
7309;BME280;3695;53.330;9.876;2023-05-19T00:35:16;103276.38;;;8.92;100.00
7309;BME280;3695;53.330;9.876;2023-05-19T00:37:43;103277.38;;;8.91;100.00
7309;BME280;3695;53.330;9.876;2023-05-19T00:40:11;103273.28;;;8.77;100.00
7309;BME280;3695;53.330;9.876;2023-05-19T00:42:38;103267.81;;;9.06;100.00
7309;BME280;3695;53.330;9.876;2023-05-19T00:45:06;103257.19;;;8.85;100.00
7309;BME280;3695;53.330;9.876;2023-05-19T00:47:33;103261.72;;;8.94;100.00
7309;BME280;3695;53.330;9.876;2023-05-19T00:49:59;103261.44;;;8.88;100.00
7309;BME280;3695;53.330;9.876;2023-05-19T00:52:26;103259.34;;;8.72;100.00
7309;BME280;3695;53.330;9.876;2023-05-19T00:54:54;103267.00;;;8.86;100.00
7309;BME280;3695;53.330;9.876;2023-05-19T00:57:22;103264.31;;;8.76;100.00
7309;BME280;3695;53.330;9.876;2023-05-19T00:59:50;103267.34;;;8.64;100.00
7309;BME280;3695;53.330;9.876;2023-05-19T01:02:16;103265.19;;;8.67;100.00
7309;BME280;3695;53.330;9.876;2023-05-19T01:04:43;103257.75;;;8.89;100.00
7309;BME280;3695;53.330;9.876;2023-05-19T01:07:11;103257.78;;;8.69;100.00
7309;BME280;3695;53.330;9.876;2023-05-19T01:09:37;103265.50;;;8.55;100.00
7309;BME280;3695;53.330;9.876;2023-05-19T01:12:05;103262.66;;;8.56;100.00
7309;BME280;3695;53.330;9.876;2023-05-19T01:14:33;103259.78;;;8.77;100.00
7309;BME280;3695;53.330;9.876;2023-05-19T01:17:04;103267.56;;;8.90;100.00
7309;BME280;3695;53.330;9.876;2023-05-19T01:19:51;103265.47;;;8.74;100.00
7309;BME280;3695;53.330;9.876;2023-05-19T01:22:34;103256.97;;;8.59;100.00
7309;BME280;3695;53.330;9.876;2023-05-19T01:25:21;103263.94;;;8.52;100.00
7309;BME280;3695;53.330;9.876;2023-05-19T01:28:30;103267.22;;;8.56;100.00
7309;BME280;3695;53.330;9.876;2023-05-19T01:30:59;103274.47;;;8.55;100.00
7309;BME280;3695;53.330;9.876;2023-05-19T01:33:28;103275.72;;;8.51;100.00
7309;BME280;3695;53.330;9.876;2023-05-19T01:35:58;103272.91;;;8.43;100.00
7309;BME280;3695;53.330;9.876;2023-05-19T01:38:25;103275.44;;;8.44;100.00
7309;BME280;3695;53.330;9.876;2023-05-19T01:40:55;103275.88;;;8.59;100.00
7309;BME280;3695;53.330;9.876;2023-05-19T01:43:24;103272.03;;;8.33;100.00
7309;BME280;3695;53.330;9.876;2023-05-19T01:45:52;103270.47;;;8.59;100.00
7309;BME280;3695;53.330;9.876;2023-05-19T01:48:20;103273.19;;;8.40;100.00
7309;BME280;3695;53.330;9.876;2023-05-19T01:50:47;103286.53;;;8.51;100.00
7309;BME280;3695;53.330;9.876;2023-05-19T01:53:14;103280.00;;;8.44;100.00
7309;BME280;3695;53.330;9.876;2023-05-19T01:55:42;103285.84;;;8.49;100.00
7309;BME280;3695;53.330;9.876;2023-05-19T01:58:16;103284.28;;;8.37;100.00
7309;BME280;3695;53.330;9.876;2023-05-19T02:00:51;103295.06;;;8.27;100.00
7309;BME280;3695;53.330;9.876;2023-05-19T02:03:28;103288.81;;;8.17;100.00
7309;BME280;3695;53.330;9.876;2023-05-19T02:06:02;103297.06;;;8.25;100.00
7309;BME280;3695;53.330;9.876;2023-05-19T02:08:46;103303.31;;;8.26;100.00
7309;BME280;3695;53.330;9.876;2023-05-19T02:11:21;103293.50;;;8.25;100.00
7309;BME280;3695;53.330;9.876;2023-05-19T02:13:53;103289.38;;;8.20;100.00
7309;BME280;3695;53.330;9.876;2023-05-19T02:16:23;103289.41;;;8.40;100.00
7309;BME280;3695;53.330;9.876;2023-05-19T02:18:54;103287.94;;;8.26;100.00
7309;BME280;3695;53.330;9.876;2023-05-19T02:21:21;103291.09;;;8.50;100.00
7309;BME280;3695;53.330;9.876;2023-05-19T02:23:47;103290.94;;;8.33;100.00
7309;BME280;3695;53.330;9.876;2023-05-19T02:26:14;103290.94;;;8.33;100.00
7309;BME280;3695;53.330;9.876;2023-05-19T02:28:41;103283.13;;;8.49;100.00
7309;BME280;3695;53.330;9.876;2023-05-19T02:31:07;103283.41;;;8.46;100.00
7309;BME280;3695;53.330;9.876;2023-05-19T02:33:34;103278.44;;;8.51;100.00
7309;BME280;3695;53.330;9.876;2023-05-19T02:36:03;103281.28;;;8.49;100.00
7309;BME280;3695;53.330;9.876;2023-05-19T02:38:30;103289.69;;;8.37;100.00
7309;BME280;3695;53.330;9.876;2023-05-19T02:40:56;103282.84;;;8.33;100.00
7309;BME280;3695;53.330;9.876;2023-05-19T02:43:23;103281.84;;;8.24;100.00
7309;BME280;3695;53.330;9.876;2023-05-19T02:45:49;103278.00;;;8.17;100.00
7309;BME280;3695;53.330;9.876;2023-05-19T02:48:15;103272.31;;;8.20;100.00
7309;BME280;3695;53.330;9.876;2023-05-19T02:50:42;103278.56;;;8.20;100.00
7309;BME280;3695;53.330;9.876;2023-05-19T02:53:10;103281.13;;;8.12;100.00
7309;BME280;3695;53.330;9.876;2023-05-19T02:55:36;103283.28;;;8.38;100.00
7309;BME280;3695;53.330;9.876;2023-05-19T02:58:03;103282.28;;;8.19;100.00
7309;BME280;3695;53.330;9.876;2023-05-19T03:00:29;103281.72;;;8.45;100.00
7309;BME280;3695;53.330;9.876;2023-05-19T03:02:56;103278.72;;;8.48;100.00
7309;BME280;3695;53.330;9.876;2023-05-19T03:05:26;103279.44;;;8.40;100.00
7309;BME280;3695;53.330;9.876;2023-05-19T03:07:53;103286.84;;;8.38;100.00
7309;BME280;3695;53.330;9.876;2023-05-19T03:10:22;103277.47;;;8.52;100.00
7309;BME280;3695;53.330;9.876;2023-05-19T03:12:48;103287.69;;;8.58;100.00
7309;BME280;3695;53.330;9.876;2023-05-19T03:15:14;103291.41;;;8.38;100.00
7309;BME280;3695;53.330;9.876;2023-05-19T03:17:42;103283.84;;;8.51;100.00
7309;BME280;3695;53.330;9.876;2023-05-19T03:20:09;103282.56;;;8.36;100.00
7309;BME280;3695;53.330;9.876;2023-05-19T03:22:36;103289.69;;;8.56;100.00
7309;BME280;3695;53.330;9.876;2023-05-19T03:25:03;103288.09;;;8.25;100.00
7309;BME280;3695;53.330;9.876;2023-05-19T03:27:31;103286.81;;;8.19;100.00
7309;BME280;3695;53.330;9.876;2023-05-19T03:29:57;103280.28;;;8.21;100.00
7309;BME280;3695;53.330;9.876;2023-05-19T03:32:24;103283.13;;;8.10;100.00
7309;BME280;3695;53.330;9.876;2023-05-19T03:34:50;103281.09;;;8.03;100.00
7309;BME280;3695;53.330;9.876;2023-05-19T03:37:17;103283.97;;;8.20;100.00
7309;BME280;3695;53.330;9.876;2023-05-19T03:39:43;103284.41;;;8.26;100.00
7309;BME280;3695;53.330;9.876;2023-05-19T03:42:10;103290.50;;;8.18;100.00
7309;BME280;3695;53.330;9.876;2023-05-19T03:44:38;103281.41;;;8.09;100.00
7309;BME280;3695;53.330;9.876;2023-05-19T03:47:04;103286.53;;;8.12;100.00
7309;BME280;3695;53.330;9.876;2023-05-19T03:49:31;103294.22;;;8.17;100.00
7309;BME280;3695;53.330;9.876;2023-05-19T03:51:57;103293.91;;;8.10;100.00
7309;BME280;3695;53.330;9.876;2023-05-19T03:54:24;103303.31;;;8.26;100.00
7309;BME280;3695;53.330;9.876;2023-05-19T03:56:51;103297.47;;;8.20;100.00
7309;BME280;3695;53.330;9.876;2023-05-19T03:59:18;103304.03;;;8.28;100.00
7309;BME280;3695;53.330;9.876;2023-05-19T04:01:45;103305.31;;;8.24;100.00
7309;BME280;3695;53.330;9.876;2023-05-19T04:04:12;103312.28;;;8.26;100.00
7309;BME280;3695;53.330;9.876;2023-05-19T04:06:39;103313.97;;;8.27;100.00
7309;BME280;3695;53.330;9.876;2023-05-19T04:09:10;103317.84;;;8.34;100.00
7309;BME280;3695;53.330;9.876;2023-05-19T04:11:37;103323.81;;;8.38;100.00
7309;BME280;3695;53.330;9.876;2023-05-19T04:14:04;103320.41;;;8.36;100.00
7309;BME280;3695;53.330;9.876;2023-05-19T04:16:31;103323.22;;;8.25;100.00
7309;BME280;3695;53.330;9.876;2023-05-19T04:18:59;103339.34;;;8.55;100.00
7309;BME280;3695;53.330;9.876;2023-05-19T04:21:25;103334.50;;;8.39;100.00
7309;BME280;3695;53.330;9.876;2023-05-19T04:23:52;103335.78;;;8.45;100.00
7309;BME280;3695;53.330;9.876;2023-05-19T04:26:18;103338.63;;;8.63;100.00
7309;BME280;3695;53.330;9.876;2023-05-19T04:28:46;103340.63;;;8.70;100.00
7309;BME280;3695;53.330;9.876;2023-05-19T04:31:13;103335.91;;;8.72;100.00
7309;BME280;3695;53.330;9.876;2023-05-19T04:33:39;103346.84;;;8.90;100.00
7309;BME280;3695;53.330;9.876;2023-05-19T04:36:08;103337.88;;;8.90;100.00
7309;BME280;3695;53.330;9.876;2023-05-19T04:38:35;103336.88;;;8.91;100.00
7309;BME280;3695;53.330;9.876;2023-05-19T04:41:04;103341.78;;;8.58;100.00
7309;BME280;3695;53.330;9.876;2023-05-19T04:43:30;103342.91;;;8.65;100.00
7309;BME280;3695;53.330;9.876;2023-05-19T04:45:57;103335.63;;;8.75;100.00
7309;BME280;3695;53.330;9.876;2023-05-19T04:48:23;103342.88;;;8.84;100.00
7309;BME280;3695;53.330;9.876;2023-05-19T04:50:50;103336.47;;;8.86;100.00
7309;BME280;3695;53.330;9.876;2023-05-19T04:53:18;103343.56;;;8.96;100.00
7309;BME280;3695;53.330;9.876;2023-05-19T04:55:46;103335.75;;;9.03;100.00
7309;BME280;3695;53.330;9.876;2023-05-19T04:58:12;103339.16;;;9.05;100.00
7309;BME280;3695;53.330;9.876;2023-05-19T05:00:38;103338.28;;;9.14;100.00
7309;BME280;3695;53.330;9.876;2023-05-19T05:03:05;103337.38;;;9.23;100.00
7309;BME280;3695;53.330;9.876;2023-05-19T05:05:32;103334.41;;;9.17;100.00
7309;BME280;3695;53.330;9.876;2023-05-19T05:07:58;103345.09;;;9.18;100.00
7309;BME280;3695;53.330;9.876;2023-05-19T05:10:26;103338.81;;;9.27;100.00
7309;BME280;3695;53.330;9.876;2023-05-19T05:12:53;103335.78;;;9.30;100.00
7309;BME280;3695;53.330;9.876;2023-05-19T05:15:21;103344.22;;;9.27;100.00
7309;BME280;3695;53.330;9.876;2023-05-19T05:17:48;103335.09;;;9.28;100.00
7309;BME280;3695;53.330;9.876;2023-05-19T05:20:15;103334.28;;;9.18;100.00
7309;BME280;3695;53.330;9.876;2023-05-19T05:22:44;103343.31;;;9.46;100.00
7309;BME280;3695;53.330;9.876;2023-05-19T05:25:12;103343.41;;;9.54;100.00
7309;BME280;3695;53.330;9.876;2023-05-19T05:27:40;103342.72;;;9.52;100.00
7309;BME280;3695;53.330;9.876;2023-05-19T05:30:07;103329.59;;;9.57;100.00
7309;BME280;3695;53.330;9.876;2023-05-19T05:32:33;103340.38;;;9.67;100.00
7309;BME280;3695;53.330;9.876;2023-05-19T05:35:00;103329.03;;;9.54;100.00
7309;BME280;3695;53.330;9.876;2023-05-19T05:37:27;103336.94;;;9.65;100.00
7309;BME280;3695;53.330;9.876;2023-05-19T05:39:54;103337.56;;;9.59;100.00
7309;BME280;3695;53.330;9.876;2023-05-19T05:42:20;103333.84;;;9.60;100.00
7309;BME280;3695;53.330;9.876;2023-05-19T05:44:48;103348.28;;;9.51;100.00
7309;BME280;3695;53.330;9.876;2023-05-19T05:47:15;103344.16;;;9.46;100.00
7309;BME280;3695;53.330;9.876;2023-05-19T05:49:42;103349.75;;;9.72;100.00
7309;BME280;3695;53.330;9.876;2023-05-19T05:52:13;103351.41;;;9.83;100.00
7309;BME280;3695;53.330;9.876;2023-05-19T05:54:41;103350.91;;;9.70;100.00
7309;BME280;3695;53.330;9.876;2023-05-19T05:57:08;103351.19;;;9.67;100.00
7309;BME280;3695;53.330;9.876;2023-05-19T05:59:35;103348.06;;;9.89;100.00
7309;BME280;3695;53.330;9.876;2023-05-19T06:02:04;103348.94;;;9.90;100.00
7309;BME280;3695;53.330;9.876;2023-05-19T06:04:31;103343.97;;;10.13;100.00
7309;BME280;3695;53.330;9.876;2023-05-19T06:06:57;103353.19;;;10.20;100.00
7309;BME280;3695;53.330;9.876;2023-05-19T06:09:25;103355.66;;;10.13;100.00
7309;BME280;3695;53.330;9.876;2023-05-19T06:11:52;103353.94;;;9.94;100.00
7309;BME280;3695;53.330;9.876;2023-05-19T06:14:19;103359.91;;;10.16;100.00
7309;BME280;3695;53.330;9.876;2023-05-19T06:16:45;103363.44;;;10.26;100.00
7309;BME280;3695;53.330;9.876;2023-05-19T06:19:13;103353.91;;;10.22;100.00
7309;BME280;3695;53.330;9.876;2023-05-19T06:21:40;103356.63;;;10.22;100.00
7309;BME280;3695;53.330;9.876;2023-05-19T06:24:07;103354.91;;;10.38;100.00
7309;BME280;3695;53.330;9.876;2023-05-19T06:26:34;103355.97;;;10.55;100.00
7309;BME280;3695;53.330;9.876;2023-05-19T06:29:00;103355.78;;;10.75;100.00
7309;BME280;3695;53.330;9.876;2023-05-19T06:31:27;103352.06;;;10.76;100.00
7309;BME280;3695;53.330;9.876;2023-05-19T06:33:54;103352.53;;;10.89;100.00
7309;BME280;3695;53.330;9.876;2023-05-19T06:36:21;103344.81;;;11.02;100.00
7309;BME280;3695;53.330;9.876;2023-05-19T06:38:48;103339.38;;;11.02;100.00
7309;BME280;3695;53.330;9.876;2023-05-19T06:41:14;103344.22;;;10.90;100.00
7309;BME280;3695;53.330;9.876;2023-05-19T06:43:41;103340.81;;;11.14;100.00
7309;BME280;3695;53.330;9.876;2023-05-19T06:46:08;103340.06;;;11.30;100.00
7309;BME280;3695;53.330;9.876;2023-05-19T06:48:34;103336.63;;;11.46;100.00
7309;BME280;3695;53.330;9.876;2023-05-19T06:51:01;103338.81;;;11.42;100.00
7309;BME280;3695;53.330;9.876;2023-05-19T06:53:29;103334.94;;;11.53;100.00
7309;BME280;3695;53.330;9.876;2023-05-19T06:55:56;103337.34;;;11.56;100.00
7309;BME280;3695;53.330;9.876;2023-05-19T06:58:22;103328.91;;;11.75;100.00
7309;BME280;3695;53.330;9.876;2023-05-19T07:00:48;103325.97;;;11.94;100.00
7309;BME280;3695;53.330;9.876;2023-05-19T07:03:15;103324.66;;;12.07;100.00
7309;BME280;3695;53.330;9.876;2023-05-19T07:05:42;103314.78;;;11.97;100.00
7309;BME280;3695;53.330;9.876;2023-05-19T07:08:08;103310.56;;;12.11;100.00
7309;BME280;3695;53.330;9.876;2023-05-19T07:10:36;103313.63;;;12.16;100.00
7309;BME280;3695;53.330;9.876;2023-05-19T07:13:03;103287.97;;;12.11;100.00
7309;BME280;3695;53.330;9.876;2023-05-19T07:15:29;103285.41;;;12.09;100.00
7309;BME280;3695;53.330;9.876;2023-05-19T07:17:57;103310.41;;;12.21;100.00
7309;BME280;3695;53.330;9.876;2023-05-19T07:20:23;103327.78;;;12.44;100.00
7309;BME280;3695;53.330;9.876;2023-05-19T07:22:50;103306.03;;;12.52;100.00
7309;BME280;3695;53.330;9.876;2023-05-19T07:25:16;103311.63;;;12.67;100.00
7309;BME280;3695;53.330;9.876;2023-05-19T07:27:44;103325.94;;;12.85;100.00
7309;BME280;3695;53.330;9.876;2023-05-19T07:30:11;103297.84;;;12.93;100.00
7309;BME280;3695;53.330;9.876;2023-05-19T07:32:38;103293.56;;;13.07;100.00
7309;BME280;3695;53.330;9.876;2023-05-19T07:35:05;103305.47;;;13.22;100.00
7309;BME280;3695;53.330;9.876;2023-05-19T07:37:31;103291.00;;;13.30;100.00
7309;BME280;3695;53.330;9.876;2023-05-19T07:39:58;103278.19;;;13.38;100.00
7309;BME280;3695;53.330;9.876;2023-05-19T07:42:24;103266.44;;;13.38;100.00
7309;BME280;3695;53.330;9.876;2023-05-19T07:44:52;103271.69;;;13.47;100.00
7309;BME280;3695;53.330;9.876;2023-05-19T07:47:18;103280.94;;;13.69;100.00
7309;BME280;3695;53.330;9.876;2023-05-19T07:49:45;103268.88;;;13.95;100.00
7309;BME280;3695;53.330;9.876;2023-05-19T07:52:11;103247.84;;;13.80;100.00
7309;BME280;3695;53.330;9.876;2023-05-19T07:54:38;103250.22;;;13.83;100.00
7309;BME280;3695;53.330;9.876;2023-05-19T07:57:04;103268.13;;;14.32;100.00
7309;BME280;3695;53.330;9.876;2023-05-19T07:59:31;103244.81;;;14.67;100.00
7309;BME280;3695;53.330;9.876;2023-05-19T08:01:58;103209.34;;;14.67;100.00
7309;BME280;3695;53.330;9.876;2023-05-19T08:04:25;103217.22;;;14.62;100.00
7309;BME280;3695;53.330;9.876;2023-05-19T08:06:51;103198.72;;;14.72;100.00
7309;BME280;3695;53.330;9.876;2023-05-19T08:09:19;103175.41;;;14.46;100.00
7309;BME280;3695;53.330;9.876;2023-05-19T08:11:45;103199.97;;;14.61;100.00
7309;BME280;3695;53.330;9.876;2023-05-19T08:14:12;103180.03;;;14.61;100.00
7309;BME280;3695;53.330;9.876;2023-05-19T08:16:38;103202.47;;;14.71;100.00
7309;BME280;3695;53.330;9.876;2023-05-19T08:19:08;103204.81;;;14.74;100.00
7309;BME280;3695;53.330;9.876;2023-05-19T08:21:34;103185.91;;;14.72;100.00
7309;BME280;3695;53.330;9.876;2023-05-19T08:24:01;103218.75;;;14.94;100.00
7309;BME280;3695;53.330;9.876;2023-05-19T08:26:28;103209.25;;;15.19;100.00
7309;BME280;3695;53.330;9.876;2023-05-19T08:28:55;103180.63;;;15.15;100.00
7309;BME280;3695;53.330;9.876;2023-05-19T08:31:21;103164.88;;;15.02;100.00
7309;BME280;3695;53.330;9.876;2023-05-19T08:33:49;103186.56;;;15.19;100.00
7309;BME280;3695;53.330;9.876;2023-05-19T08:36:17;103178.25;;;15.27;100.00
7309;BME280;3695;53.330;9.876;2023-05-19T08:38:43;103182.81;;;15.41;100.00
7309;BME280;3695;53.330;9.876;2023-05-19T08:41:10;103188.50;;;15.39;100.00
7309;BME280;3695;53.330;9.876;2023-05-19T08:43:36;103163.34;;;15.29;100.00
7309;BME280;3695;53.330;9.876;2023-05-19T08:46:03;103196.00;;;15.67;100.00
7309;BME280;3695;53.330;9.876;2023-05-19T08:48:32;103169.97;;;15.56;100.00
7309;BME280;3695;53.330;9.876;2023-05-19T08:51:06;103177.81;;;15.59;100.00
7309;BME280;3695;53.330;9.876;2023-05-19T08:53:39;103159.94;;;15.78;100.00
7309;BME280;3695;53.330;9.876;2023-05-19T08:56:10;103176.34;;;15.78;100.00
7309;BME280;3695;53.330;9.876;2023-05-19T08:58:41;103175.75;;;15.83;100.00
7309;BME280;3695;53.330;9.876;2023-05-19T09:01:08;103150.97;;;15.63;100.00
7309;BME280;3695;53.330;9.876;2023-05-19T09:03:36;103164.75;;;15.97;100.00
7309;BME280;3695;53.330;9.876;2023-05-19T09:06:04;103148.16;;;15.78;100.00
7309;BME280;3695;53.330;9.876;2023-05-19T09:08:31;103179.78;;;16.08;100.00
7309;BME280;3695;53.330;9.876;2023-05-19T09:10:59;103185.38;;;16.00;100.00
7309;BME280;3695;53.330;9.876;2023-05-19T09:13:25;103193.84;;;15.84;100.00
7309;BME280;3695;53.330;9.876;2023-05-19T09:15:52;103202.91;;;15.84;100.00
7309;BME280;3695;53.330;9.876;2023-05-19T09:18:18;103195.28;;;16.22;100.00
7309;BME280;3695;53.330;9.876;2023-05-19T09:20:45;103199.22;;;16.41;100.00
7309;BME280;3695;53.330;9.876;2023-05-19T09:23:12;103194.13;;;16.10;100.00
7309;BME280;3695;53.330;9.876;2023-05-19T09:25:46;103197.31;;;15.92;100.00
7309;BME280;3695;53.330;9.876;2023-05-19T09:28:21;103194.63;;;15.99;100.00
7309;BME280;3695;53.330;9.876;2023-05-19T09:30:48;103184.91;;;16.39;100.00
7309;BME280;3695;53.330;9.876;2023-05-19T09:33:16;103191.16;;;16.33;100.00
7309;BME280;3695;53.330;9.876;2023-05-19T09:35:45;103176.78;;;16.03;100.00
7309;BME280;3695;53.330;9.876;2023-05-19T09:38:16;103186.31;;;16.56;100.00
7309;BME280;3695;53.330;9.876;2023-05-19T09:40:42;103187.69;;;16.67;100.00
7309;BME280;3695;53.330;9.876;2023-05-19T09:43:09;103194.13;;;16.59;100.00
7309;BME280;3695;53.330;9.876;2023-05-19T09:45:37;103182.31;;;16.87;100.00
7309;BME280;3695;53.330;9.876;2023-05-19T09:48:04;103172.53;;;17.06;100.00
7309;BME280;3695;53.330;9.876;2023-05-19T09:50:30;103190.91;;;16.77;100.00
7309;BME280;3695;53.330;9.876;2023-05-19T09:52:58;103184.63;;;17.24;100.00
7309;BME280;3695;53.330;9.876;2023-05-19T09:55:26;103178.81;;;16.99;100.00
7309;BME280;3695;53.330;9.876;2023-05-19T09:57:53;103167.59;;;16.94;100.00
7309;BME280;3695;53.330;9.876;2023-05-19T10:00:21;103170.63;;;17.06;100.00
7309;BME280;3695;53.330;9.876;2023-05-19T10:02:49;103174.03;;;17.08;100.00
7309;BME280;3695;53.330;9.876;2023-05-19T10:05:17;103179.56;;;16.87;100.00
7309;BME280;3695;53.330;9.876;2023-05-19T10:07:44;103166.28;;;16.84;100.00
7309;BME280;3695;53.330;9.876;2023-05-19T10:10:13;103166.31;;;17.38;100.00
7309;BME280;3695;53.330;9.876;2023-05-19T10:12:40;103156.34;;;17.17;100.00
7309;BME280;3695;53.330;9.876;2023-05-19T10:15:09;103159.38;;;17.42;100.00
7309;BME280;3695;53.330;9.876;2023-05-19T10:17:37;103151.94;;;17.23;100.00
7309;BME280;3695;53.330;9.876;2023-05-19T10:20:07;103141.31;;;17.54;100.00
7309;BME280;3695;53.330;9.876;2023-05-19T10:22:35;103145.88;;;17.47;100.00
7309;BME280;3695;53.330;9.876;2023-05-19T10:25:01;103143.34;;;17.39;100.00
7309;BME280;3695;53.330;9.876;2023-05-19T10:27:29;103143.63;;;17.57;100.00
7309;BME280;3695;53.330;9.876;2023-05-19T10:29:59;103129.22;;;17.42;100.00
7309;BME280;3695;53.330;9.876;2023-05-19T10:32:29;103129.84;;;17.44;100.00
7309;BME280;3695;53.330;9.876;2023-05-19T10:38:04;103132.28;;;17.74;100.00
7309;BME280;3695;53.330;9.876;2023-05-19T10:40:39;103128.47;;;17.68;100.00
7309;BME280;3695;53.330;9.876;2023-05-19T10:43:14;103134.19;;;17.93;100.00
7309;BME280;3695;53.330;9.876;2023-05-19T10:45:48;103134.22;;;18.06;100.00
7309;BME280;3695;53.330;9.876;2023-05-19T10:48:18;103127.47;;;18.09;100.00
7309;BME280;3695;53.330;9.876;2023-05-19T10:50:45;103122.78;;;17.96;100.00
7309;BME280;3695;53.330;9.876;2023-05-19T10:53:15;103131.88;;;18.23;100.00
7309;BME280;3695;53.330;9.876;2023-05-19T10:55:49;103119.44;;;18.14;100.00
7309;BME280;3695;53.330;9.876;2023-05-19T10:58:35;103118.16;;;18.23;100.00
7309;BME280;3695;53.330;9.876;2023-05-19T11:01:06;103115.63;;;18.21;100.00
7309;BME280;3695;53.330;9.876;2023-05-19T11:03:43;103112.66;;;18.36;100.00
7309;BME280;3695;53.330;9.876;2023-05-19T11:06:17;103098.25;;;18.61;100.00
7309;BME280;3695;53.330;9.876;2023-05-19T11:09:00;103108.72;;;18.97;100.00
7309;BME280;3695;53.330;9.876;2023-05-19T11:11:43;103105.69;;;18.27;100.00
7309;BME280;3695;53.330;9.876;2023-05-19T11:14:10;103106.75;;;17.67;100.00
7309;BME280;3695;53.330;9.876;2023-05-19T11:16:38;103101.88;;;17.62;100.00
7309;BME280;3695;53.330;9.876;2023-05-19T11:19:07;103110.13;;;17.82;100.00
7309;BME280;3695;53.330;9.876;2023-05-19T11:21:41;103100.00;;;17.76;100.00
7309;BME280;3695;53.330;9.876;2023-05-19T11:24:09;103082.69;;;17.82;100.00
7309;BME280;3695;53.330;9.876;2023-05-19T11:26:39;103097.03;;;17.97;100.00
7309;BME280;3695;53.330;9.876;2023-05-19T11:29:07;103085.66;;;17.87;100.00
7309;BME280;3695;53.330;9.876;2023-05-19T11:31:34;103082.69;;;17.95;100.00
7309;BME280;3695;53.330;9.876;2023-05-19T11:34:01;103082.91;;;17.80;100.00
7309;BME280;3695;53.330;9.876;2023-05-19T11:36:29;103079.91;;;18.35;100.00
7309;BME280;3695;53.330;9.876;2023-05-19T11:38:57;103071.31;;;17.85;100.00
7309;BME280;3695;53.330;9.876;2023-05-19T11:41:26;103078.06;;;18.02;100.00
7309;BME280;3695;53.330;9.876;2023-05-19T11:43:55;103089.69;;;18.04;100.00
7309;BME280;3695;53.330;9.876;2023-05-19T11:46:21;103077.38;;;18.40;100.00
7309;BME280;3695;53.330;9.876;2023-05-19T11:48:48;103064.78;;;18.83;100.00
7309;BME280;3695;53.330;9.876;2023-05-19T11:51:14;103066.13;;;18.61;100.00
7309;BME280;3695;53.330;9.876;2023-05-19T11:53:42;103068.94;;;19.06;100.00
7309;BME280;3695;53.330;9.876;2023-05-19T11:56:10;103064.41;;;18.73;100.00
7309;BME280;3695;53.330;9.876;2023-05-19T11:58:38;103062.72;;;19.17;100.00
7309;BME280;3695;53.330;9.876;2023-05-19T12:01:05;103063.75;;;18.78;100.00
7309;BME280;3695;53.330;9.876;2023-05-19T12:03:31;103079.47;;;18.38;100.00
7309;BME280;3695;53.330;9.876;2023-05-19T12:05:57;103072.16;;;18.12;100.00
7309;BME280;3695;53.330;9.876;2023-05-19T12:08:24;103073.59;;;18.28;100.00
7309;BME280;3695;53.330;9.876;2023-05-19T12:10:52;103062.50;;;18.74;100.00
7309;BME280;3695;53.330;9.876;2023-05-19T12:13:18;103061.84;;;18.78;100.00
7309;BME280;3695;53.330;9.876;2023-05-19T12:15:49;103046.84;;;19.19;100.00
7309;BME280;3695;53.330;9.876;2023-05-19T12:18:15;103034.09;;;19.00;100.00
7309;BME280;3695;53.330;9.876;2023-05-19T12:20:42;103045.00;;;18.68;100.00
7309;BME280;3695;53.330;9.876;2023-05-19T12:23:08;103049.88;;;18.60;100.00
7309;BME280;3695;53.330;9.876;2023-05-19T12:25:35;103050.13;;;18.32;100.00
7309;BME280;3695;53.330;9.876;2023-05-19T12:28:02;103054.41;;;18.14;100.00
7309;BME280;3695;53.330;9.876;2023-05-19T12:30:30;103042.16;;;17.97;100.00
7309;BME280;3695;53.330;9.876;2023-05-19T12:32:57;103054.19;;;18.22;100.00
7309;BME280;3695;53.330;9.876;2023-05-19T12:35:26;103053.75;;;18.25;100.00
7309;BME280;3695;53.330;9.876;2023-05-19T12:37:53;103048.44;;;18.31;100.00
7309;BME280;3695;53.330;9.876;2023-05-19T12:40:20;103046.09;;;18.47;100.00
7309;BME280;3695;53.330;9.876;2023-05-19T12:42:47;103038.38;;;19.21;100.00
7309;BME280;3695;53.330;9.876;2023-05-19T12:45:19;103032.91;;;19.52;100.00
7309;BME280;3695;53.330;9.876;2023-05-19T12:47:47;103027.69;;;19.69;100.00
7309;BME280;3695;53.330;9.876;2023-05-19T12:50:15;103015.41;;;19.96;100.00
7309;BME280;3695;53.330;9.876;2023-05-19T12:52:44;103030.09;;;20.08;100.00
7309;BME280;3695;53.330;9.876;2023-05-19T12:55:11;103014.94;;;19.49;100.00
7309;BME280;3695;53.330;9.876;2023-05-19T12:57:39;103018.03;;;18.97;100.00
7309;BME280;3695;53.330;9.876;2023-05-19T13:00:11;103021.81;;;18.51;100.00
7309;BME280;3695;53.330;9.876;2023-05-19T13:02:54;103025.53;;;19.46;100.00
7309;BME280;3695;53.330;9.876;2023-05-19T13:05:22;103018.00;;;19.66;100.00
7309;BME280;3695;53.330;9.876;2023-05-19T13:07:53;103007.66;;;20.48;100.00
7309;BME280;3695;53.330;9.876;2023-05-19T13:10:20;103006.38;;;20.07;100.00
7309;BME280;3695;53.330;9.876;2023-05-19T13:12:46;103005.31;;;20.27;100.00